N104C KOWB-KOWB
Flight info
| Callsign | N104C |
|---|---|
| Flight time | 0h 8m |
| Altitude | 1500 |
| Route | / |
| Aircraft | C172/L-G/C |
Departure
| Time | 2026-05-05 05:59 |
|---|---|
| Airport | Owensboro Daviess County Airport (KOWB) |
Arrival
| Time | 2026-05-05 06:08 |
|---|---|
| Airport | Owensboro Daviess County Airport (KOWB) |
| Time | Latitude | Longitude | Altitude | Speed | Heading |
|---|---|---|---|---|---|
| 2026-05-05 05:50 | 37.74568 | -87.16313 | 405 ft | 0 kts | 179° |
| 2026-05-05 05:55 | 37.74563 | -87.16307 | 405 ft | 4 kts | 101° |
| 2026-05-05 05:55 | 37.74574 | -87.16314 | 405 ft | 8 kts | 277° |
| 2026-05-05 05:55 | 37.74604 | -87.16397 | 406 ft | 12 kts | 303° |
| 2026-05-05 05:56 | 37.74641 | -87.16485 | 408 ft | 10 kts | 307° |
| 2026-05-05 05:56 | 37.74695 | -87.16524 | 409 ft | 9 kts | 356° |
| 2026-05-05 05:56 | 37.74767 | -87.16526 | 409 ft | 13 kts | 1° |
| 2026-05-05 05:56 | 37.74864 | -87.16529 | 410 ft | 14 kts | 336° |
| 2026-05-05 05:57 | 37.74882 | -87.16633 | 410 ft | 11 kts | 267° |
| 2026-05-05 05:57 | 37.74879 | -87.16678 | 410 ft | 0 kts | 265° |
| 2026-05-05 05:57 | 37.74877 | -87.16702 | 410 ft | 12 kts | 268° |
| 2026-05-05 05:57 | 37.74816 | -87.16771 | 409 ft | 14 kts | 179° |
| 2026-05-05 05:58 | 37.74599 | -87.16762 | 410 ft | 53 kts | 176° |
| 2026-05-05 05:58 | 37.74170 | -87.16704 | 591 ft | 58 kts | 175° |
| 2026-05-05 05:58 | 37.73734 | -87.16711 | 705 ft | 69 kts | 182° |
| 2026-05-05 05:58 | 37.73284 | -87.16788 | 861 ft | 67 kts | 206° |
| 2026-05-05 05:59 | 37.72832 | -87.16998 | 995 ft | 71 kts | 182° |
| 2026-05-05 05:59 | 37.72471 | -87.16475 | 1157 ft | 83 kts | 130° |
| 2026-05-05 05:59 | 37.72267 | -87.15754 | 1305 ft | 88 kts | 128° |
| 2026-05-05 05:59 | 37.72171 | -87.14864 | 1356 ft | 110 kts | 103° |
| 2026-05-05 06:00 | 37.72209 | -87.13856 | 1290 ft | 125 kts | 83° |
| 2026-05-05 06:00 | 37.72776 | -87.13063 | 1276 ft | 125 kts | 29° |
| 2026-05-05 06:00 | 37.73532 | -87.12611 | 1226 ft | 121 kts | 358° |
| 2026-05-05 06:00 | 37.74339 | -87.12503 | 1261 ft | 117 kts | 0° |
| 2026-05-05 06:01 | 37.75132 | -87.12514 | 1200 ft | 116 kts | 344° |
| 2026-05-05 06:01 | 37.75852 | -87.12529 | 1273 ft | 87 kts | 346° |
| 2026-05-05 06:01 | 37.76358 | -87.12784 | 1102 ft | 77 kts | 288° |
| 2026-05-05 06:01 | 37.76593 | -87.13407 | 1062 ft | 77 kts | 280° |
| 2026-05-05 06:02 | 37.76680 | -87.14025 | 1093 ft | 66 kts | 257° |
| 2026-05-05 06:02 | 37.76614 | -87.14576 | 1109 ft | 65 kts | 248° |
| 2026-05-05 06:02 | 37.76512 | -87.15134 | 1114 ft | 70 kts | 250° |
| 2026-05-05 06:02 | 37.76409 | -87.15724 | 1134 ft | 68 kts | 248° |
| 2026-05-05 06:03 | 37.76266 | -87.16337 | 966 ft | 73 kts | 229° |
| 2026-05-05 06:03 | 37.75829 | -87.16624 | 727 ft | 70 kts | 194° |
| 2026-05-05 06:03 | 37.75379 | -87.16750 | 586 ft | 62 kts | 187° |
| 2026-05-05 06:03 | 37.74964 | -87.16757 | 485 ft | 57 kts | 182° |
| 2026-05-05 06:04 | 37.74585 | -87.16751 | 422 ft | 52 kts | 181° |
| 2026-05-05 06:04 | 37.74253 | -87.16752 | 409 ft | 50 kts | 178° |
| 2026-05-05 06:04 | 37.73838 | -87.16652 | 510 ft | 69 kts | 163° |
| 2026-05-05 06:04 | 37.73356 | -87.16476 | 652 ft | 76 kts | 172° |
| 2026-05-05 06:05 | 37.72842 | -87.16396 | 809 ft | 77 kts | 176° |
| 2026-05-05 06:05 | 37.72360 | -87.16180 | 1133 ft | 67 kts | 159° |
| 2026-05-05 06:05 | 37.72029 | -87.15636 | 1305 ft | 86 kts | 130° |
| 2026-05-05 06:05 | 37.71939 | -87.14788 | 1390 ft | 114 kts | 94° |
| 2026-05-05 06:06 | 37.72150 | -87.13820 | 1493 ft | 116 kts | 86° |
| 2026-05-05 06:06 | 37.72646 | -87.12977 | 1600 ft | 128 kts | 32° |
| 2026-05-05 06:06 | 37.73456 | -87.12630 | 1649 ft | 116 kts | 346° |
| 2026-05-05 06:06 | 37.74251 | -87.12607 | 1690 ft | 113 kts | 340° |
| 2026-05-05 06:07 | 37.75031 | -87.12662 | 1753 ft | 115 kts | 339° |
| 2026-05-05 06:07 | 37.75839 | -87.12639 | 1839 ft | 122 kts | 348° |
| 2026-05-05 06:07 | 37.76653 | -87.12546 | 1897 ft | 109 kts | 346° |
| 2026-05-05 06:07 | 37.77208 | -87.12835 | 1663 ft | 67 kts | 267° |
| 2026-05-05 06:08 | 37.77267 | -87.13338 | 1598 ft | 49 kts | 249° |
| 2026-05-05 06:08 | 37.77255 | -87.13749 | 1558 ft | 46 kts | 249° |
| 2026-05-05 06:08 | 37.77197 | -87.14174 | 1460 ft | 52 kts | 247° |
| 2026-05-05 06:08 | 37.77127 | -87.14673 | 1356 ft | 58 kts | 250° |
| 2026-05-05 06:09 | 37.77045 | -87.15136 | 1331 ft | 55 kts | 249° |
| 2026-05-05 06:09 | 37.76874 | -87.15631 | 1216 ft | 64 kts | 236° |
| 2026-05-05 06:09 | 37.76628 | -87.16184 | 1069 ft | 75 kts | 237° |
| 2026-05-05 06:09 | 37.76295 | -87.16673 | 925 ft | 71 kts | 197° |
| 2026-05-05 06:10 | 37.75817 | -87.16765 | 767 ft | 68 kts | 181° |
| 2026-05-05 06:10 | 37.75385 | -87.16786 | 594 ft | 59 kts | 184° |
| 2026-05-05 06:10 | 37.75003 | -87.16784 | 493 ft | 53 kts | 177° |
| 2026-05-05 06:10 | 37.74654 | -87.16759 | 410 ft | 43 kts | 171° |
| 2026-05-05 06:11 | 37.74363 | -87.16749 | 409 ft | 45 kts | 178° |
| 2026-05-05 06:11 | 37.74061 | -87.16739 | 408 ft | 35 kts | 176° |
| 2026-05-05 06:11 | 37.73872 | -87.16727 | 406 ft | 27 kts | 177° |
| 2026-05-05 06:11 | 37.73773 | -87.16645 | 406 ft | 19 kts | 42° |
| 2026-05-05 06:12 | 37.73867 | -87.16545 | 406 ft | 19 kts | 347° |
| 2026-05-05 06:12 | 37.74003 | -87.16556 | 406 ft | 7 kts | 359° |
| 2026-05-05 06:12 | 37.74015 | -87.16556 | 407 ft | 0 kts | 359° |
| 2026-05-05 06:12 | 37.74081 | -87.16555 | 407 ft | 20 kts | 357° |
| 2026-05-05 06:13 | 37.74268 | -87.16555 | 407 ft | 26 kts | 25° |
| 2026-05-05 06:13 | 37.74424 | -87.16501 | 407 ft | 21 kts | 352° |
| 2026-05-05 06:13 | 37.74511 | -87.16413 | 406 ft | 17 kts | 55° |
| 2026-05-05 06:13 | 37.74607 | -87.16382 | 406 ft | 13 kts | 323° |
| 2026-05-05 06:14 | 37.74622 | -87.16447 | 407 ft | 9 kts | 123° |
| 2026-05-05 06:14 | 37.74607 | -87.16428 | 407 ft | 0 kts | 218° |